createdAt,value
2022-09-13T00:10:26.352Z,18.19
2022-09-13T00:17:28.122Z,18.10
2022-09-13T00:24:29.715Z,18.07
2022-09-13T00:31:31.317Z,17.99
2022-09-13T00:38:35.406Z,17.97
2022-09-13T00:45:37.062Z,17.90
2022-09-13T00:52:38.712Z,17.80
2022-09-13T00:59:52.327Z,17.73
2022-09-13T01:06:54.656Z,17.66
2022-09-13T01:13:56.229Z,17.60
2022-09-13T01:21:16.445Z,17.55
2022-09-13T01:28:39.297Z,17.53
2022-09-13T01:35:49.747Z,17.52
2022-09-13T01:42:58.485Z,17.44
2022-09-13T01:50:05.921Z,17.42
2022-09-13T01:57:18.018Z,17.39
2022-09-13T02:04:28.322Z,17.33
2022-09-13T02:11:29.886Z,17.25
2022-09-13T02:18:35.017Z,17.28
2022-09-13T02:25:36.674Z,17.16
2022-09-13T02:32:51.186Z,17.16
2022-09-13T02:39:59.789Z,17.12
2022-09-13T02:47:39.011Z,17.02
2022-09-13T02:54:44.497Z,16.94
2022-09-13T03:02:07.053Z,16.92
2022-09-13T03:09:08.651Z,16.89
2022-09-13T03:16:38.152Z,16.84
2022-09-13T03:23:48.622Z,16.81
2022-09-13T03:30:53.170Z,16.80
2022-09-13T03:38:05.815Z,16.75
2022-09-13T03:45:08.885Z,16.73
2022-09-13T03:52:12.537Z,16.67
2022-09-13T03:59:14.087Z,16.70
2022-09-13T04:06:15.638Z,16.67
2022-09-13T04:13:17.189Z,16.64
2022-09-13T04:20:19.097Z,16.63
2022-09-13T04:27:20.680Z,16.66
2022-09-13T04:34:23.065Z,16.62
2022-09-13T04:41:24.650Z,16.68
2022-09-13T04:48:26.216Z,16.62
2022-09-13T04:55:27.940Z,16.61
2022-09-13T05:02:29.690Z,16.58
2022-09-13T05:09:31.283Z,16.58
2022-09-13T05:16:33.201Z,16.71
2022-09-13T05:23:35.339Z,16.80
2022-09-13T05:30:41.651Z,16.77
2022-09-13T05:37:43.862Z,16.83
2022-09-13T05:44:45.430Z,16.91
2022-09-13T05:51:46.966Z,16.95
2022-09-13T05:58:49.065Z,17.00
2022-09-13T06:05:54.196Z,17.01
2022-09-13T06:12:55.773Z,16.99
2022-09-13T06:19:57.344Z,16.91
2022-09-13T06:26:58.924Z,16.90
2022-09-13T06:34:02.331Z,16.84
2022-09-13T06:41:04.998Z,16.92
2022-09-13T06:48:06.530Z,17.03
2022-09-13T06:55:12.579Z,17.17
2022-09-13T07:02:15.109Z,17.33
2022-09-13T07:09:21.459Z,17.57
2022-09-13T07:16:28.214Z,17.79
2022-09-13T07:23:31.307Z,18.01
2022-09-13T07:30:33.558Z,18.16
2022-09-13T07:37:35.115Z,18.19
2022-09-13T07:44:36.726Z,18.31
2022-09-13T07:51:39.593Z,18.39
2022-09-13T07:58:42.269Z,18.42
2022-09-13T08:05:43.938Z,18.56
2022-09-13T08:12:45.518Z,18.60
2022-09-13T08:19:47.104Z,18.80
2022-09-13T08:26:48.928Z,19.07
2022-09-13T08:33:50.707Z,19.22
2022-09-13T08:40:57.754Z,19.34
2022-09-13T08:48:03.699Z,19.60
2022-09-13T08:55:31.216Z,19.50
2022-09-13T09:02:54.544Z,19.78
2022-09-13T09:09:58.703Z,20.06
2022-09-13T09:17:04.461Z,19.95
2022-09-13T09:24:06.182Z,20.09
2022-09-13T09:31:12.378Z,20.84
2022-09-13T09:38:26.432Z,21.20
2022-09-13T09:45:32.362Z,21.41
2022-09-13T09:52:46.065Z,22.21
2022-09-13T09:59:47.613Z,22.58
2022-09-13T10:06:49.825Z,22.36
2022-09-13T10:14:02.148Z,22.65
2022-09-13T10:21:18.740Z,22.47
2022-09-13T10:28:20.373Z,22.66
2022-09-13T10:35:22.179Z,22.52
2022-09-13T10:42:24.530Z,22.46
2022-09-13T10:50:00.129Z,22.55
2022-09-13T10:57:02.032Z,22.43
2022-09-13T11:04:37.387Z,22.36
2022-09-13T11:11:48.253Z,22.19
2022-09-13T11:19:01.570Z,21.97
2022-09-13T11:26:23.057Z,21.92
2022-09-13T11:33:59.523Z,21.70
2022-09-13T11:41:28.216Z,21.74
2022-09-13T11:48:37.018Z,21.58
2022-09-13T11:55:42.043Z,21.54
2022-09-13T12:02:59.305Z,21.50
2022-09-13T12:10:05.919Z,21.48
2022-09-13T12:17:24.206Z,21.42
2022-09-13T12:24:39.144Z,21.28
2022-09-13T12:31:40.758Z,21.34
2022-09-13T12:39:16.487Z,21.37
2022-09-13T12:46:39.514Z,21.31
2022-09-13T12:54:09.525Z,21.38
2022-09-13T13:01:19.956Z,21.40
2022-09-13T13:08:21.532Z,21.35
2022-09-13T13:15:26.007Z,21.38
2022-09-13T13:22:42.855Z,21.51
2022-09-13T13:29:44.406Z,21.52
2022-09-13T13:36:48.858Z,21.54
2022-09-13T13:43:50.460Z,21.48
2022-09-13T13:51:15.971Z,21.79
2022-09-13T13:58:51.757Z,22.68
2022-09-13T14:06:11.628Z,23.37
2022-09-13T14:13:18.100Z,23.19
2022-09-13T14:20:22.307Z,23.08
2022-09-13T14:27:29.362Z,23.33
2022-09-13T14:34:36.196Z,23.21
2022-09-13T14:41:38.395Z,22.84
2022-09-13T14:48:48.186Z,22.76
2022-09-13T14:55:59.109Z,22.74
2022-09-13T15:03:05.371Z,22.72
2022-09-13T15:10:12.926Z,22.78
2022-09-13T15:17:14.555Z,22.80
2022-09-13T15:24:26.676Z,23.20
2022-09-13T15:31:29.710Z,23.49
2022-09-13T15:38:31.728Z,24.39
2022-09-13T15:45:33.285Z,24.50
2022-09-13T15:52:34.900Z,24.92
2022-09-13T15:59:36.545Z,24.41
2022-09-13T16:06:38.221Z,23.81
2022-09-13T16:13:39.773Z,23.48
2022-09-13T16:20:41.309Z,23.14
2022-09-13T16:27:44.600Z,22.93
2022-09-13T16:34:47.488Z,22.86
2022-09-13T16:41:49.180Z,22.76
2022-09-13T16:48:54.586Z,22.58
2022-09-13T16:56:06.857Z,22.46
2022-09-13T17:03:08.682Z,22.30
2022-09-13T17:10:12.363Z,22.25
2022-09-13T17:17:15.754Z,22.19
2022-09-13T17:24:17.499Z,21.90
2022-09-13T17:31:19.563Z,21.83
2022-09-13T17:38:21.283Z,21.85
2022-09-13T17:45:23.156Z,21.75
2022-09-13T17:52:24.728Z,21.67
2022-09-13T17:59:27.813Z,21.60
2022-09-13T18:06:29.490Z,21.50
2022-09-13T18:13:31.146Z,21.43
2022-09-13T18:20:34.484Z,21.40
2022-09-13T18:27:37.905Z,21.38
2022-09-13T18:34:42.030Z,21.35
2022-09-13T18:41:45.151Z,21.26
2022-09-13T18:48:48.019Z,21.26
2022-09-13T18:55:49.756Z,21.29
2022-09-13T19:03:10.947Z,21.26
2022-09-13T19:10:16.070Z,21.18
2022-09-13T19:17:19.908Z,21.11
2022-09-13T19:24:21.859Z,21.07
2022-09-13T19:31:24.388Z,21.00
2022-09-13T19:38:26.035Z,21.00
2022-09-13T19:45:27.612Z,20.97
2022-09-13T19:52:29.218Z,20.88
2022-09-13T19:59:31.530Z,20.84
2022-09-13T20:06:54.554Z,20.86
2022-09-13T20:13:58.988Z,20.76
2022-09-13T20:21:05.160Z,20.67
2022-09-13T20:28:06.721Z,20.58
2022-09-13T20:35:09.347Z,20.49
2022-09-13T20:42:11.151Z,20.44
2022-09-13T20:49:12.767Z,20.38
2022-09-13T20:56:16.171Z,20.25
2022-09-13T21:03:17.782Z,20.28
2022-09-13T21:10:19.732Z,20.18
2022-09-13T21:17:22.048Z,20.16
2022-09-13T21:24:23.628Z,20.10
2022-09-13T21:31:29.838Z,20.01
2022-09-13T21:38:33.136Z,19.90
2022-09-13T21:45:34.798Z,19.81
2022-09-13T21:52:36.439Z,19.75
2022-09-13T21:59:38.009Z,19.68
2022-09-13T22:06:39.606Z,19.62
2022-09-13T22:13:45.505Z,19.50
2022-09-13T22:20:47.191Z,19.40
2022-09-13T22:27:48.835Z,19.29
2022-09-13T22:34:50.359Z,19.18
2022-09-13T22:41:51.896Z,19.09
2022-09-13T22:48:53.899Z,19.04
2022-09-13T22:55:55.655Z,18.99
2022-09-13T23:02:57.192Z,18.92
2022-09-13T23:09:58.740Z,18.85
2022-09-13T23:17:00.321Z,18.81
2022-09-13T23:24:02.384Z,18.73
2022-09-13T23:31:34.232Z,18.66
2022-09-13T23:38:36.072Z,18.60
2022-09-13T23:45:37.659Z,18.55
2022-09-13T23:52:39.346Z,18.57
2022-09-13T23:59:40.970Z,18.51
